Time;durP1;ratioP1;P1;durP2;ratioP2;P2;SDS_P1;SDS_P2;PMS_P1;PMS_P2;Temp;Humidity;BMP_temperature;BMP_pressure;BME280_temperature;BME280_humidity;BME280_pressure;Samples;Min_cycle;Max_cycle;Signal;HPM_P1;HPM_P2
2022/06/30 00:01:15;;;;;;;;;;;;;;;21.64;60.49;100175.97;6157010;23;1016;-86
2022/06/30 00:03:40;;;;;;;;;;;;;;;21.07;61.75;100172.59;6155128;23;1284;-85
2022/06/30 00:06:05;;;;;;;;;;;;;;;20.85;62.61;100180.72;6156208;23;999;-86
2022/06/30 00:08:31;;;;;;;;;;;;;;;21.07;61.77;100175.38;6153658;23;1944;-85
2022/06/30 00:11:06;;;;;;;;;;;;;;;21.06;62.28;100170.97;6155442;23;1199;-86
2022/06/30 00:13:31;;;;;;;;;;;;;;;20.72;63.12;100174.44;6154364;23;1323;-85
2022/06/30 00:15:56;;;;;;;;;;;;;;;21.02;62.65;100177.59;6154421;23;1055;-86
2022/06/30 00:18:22;;;;;;;;;;;;;;;20.75;63.08;100187.66;6154888;23;1040;-86
2022/06/30 00:20:47;;;;;;;;;;;;;;;21.11;62.47;100184.63;6154826;23;1341;-86
2022/06/30 00:23:12;;;;;;;;;;;;;;;21.03;62.04;100179.22;6154646;23;897;-85
2022/06/30 00:25:37;;;;;;;;;;;;;;;20.51;63.96;100185.78;6154975;23;1267;-85
2022/06/30 00:28:02;;;;;;;;;;;;;;;20.90;63.09;100172.94;6154230;23;1004;-86
2022/06/30 00:30:27;;;;;;;;;;;;;;;21.05;62.19;100161.00;6155112;23;1897;-86
2022/06/30 00:32:53;;;;;;;;;;;;;;;20.56;63.41;100149.41;6155159;23;1422;-86
2022/06/30 00:35:18;;;;;;;;;;;;;;;20.84;63.05;100156.88;6156546;23;1163;-86
2022/06/30 00:37:44;;;;;;;;;;;;;;;20.95;62.85;100149.59;6155040;23;906;-86
2022/06/30 00:40:09;;;;;;;;;;;;;;;20.69;64.14;100150.13;6154226;23;1183;-86
2022/06/30 00:42:34;;;;;;;;;;;;;;;20.98;63.30;100141.38;6154747;23;1396;-86
2022/06/30 00:44:59;;;;;;;;;;;;;;;20.65;63.88;100130.56;6154645;23;1196;-87
2022/06/30 00:47:25;;;;;;;;;;;;;;;20.50;65.19;100128.56;6154995;23;992;-86
2022/06/30 00:49:51;;;;;;;;;;;;;;;20.93;63.44;100124.09;6156371;23;1881;-86
2022/06/30 00:52:18;;;;;;;;;;;;;;;21.07;63.00;100119.72;6154972;23;1349;-86
2022/06/30 00:54:44;;;;;;;;;;;;;;;21.01;63.22;100109.22;6154113;23;1356;-86
2022/06/30 00:57:10;;;;;;;;;;;;;;;21.05;63.43;100115.69;6154897;23;1330;-87
2022/06/30 00:59:37;;;;;;;;;;;;;;;21.06;63.18;100117.28;6156072;23;821;-86
2022/06/30 01:02:02;;;;;;;;;;;;;;;20.97;63.23;100117.47;6155050;23;1125;-86
2022/06/30 01:04:32;;;;;;;;;;;;;;;20.86;63.84;100119.19;6154336;23;1295;-86
2022/06/30 01:06:57;;;;;;;;;;;;;;;20.92;63.81;100109.41;6154873;23;1288;-86
2022/06/30 01:14:50;;;;;;;;;;;;;;;20.81;64.11;100099.97;6155149;23;1301;-86
2022/06/30 01:17:15;;;;;;;;;;;;;;;20.43;65.51;100105.31;6154641;23;1244;-86
2022/06/30 01:19:53;;;;;;;;;;;;;;;20.52;65.42;100103.19;6154137;23;1340;-86
2022/06/30 01:22:19;;;;;;;;;;;;;;;20.50;64.95;100108.31;6154299;23;1230;-86
2022/06/30 01:24:44;;;;;;;;;;;;;;;20.55;64.83;100100.50;6153134;23;1278;-85
2022/06/30 01:27:09;;;;;;;;;;;;;;;20.60;64.97;100110.53;6155539;23;992;-85
2022/06/30 01:29:34;;;;;;;;;;;;;;;20.59;64.79;100109.72;6154057;23;1897;-86
2022/06/30 01:31:59;;;;;;;;;;;;;;;20.13;65.92;100115.97;6155013;23;1072;-86
2022/06/30 01:34:24;;;;;;;;;;;;;;;20.36;65.46;100117.88;6162850;23;1164;-86
2022/06/30 01:36:49;;;;;;;;;;;;;;;20.38;65.22;100107.19;6155757;23;977;-86
2022/06/30 01:39:15;;;;;;;;;;;;;;;20.08;66.40;100111.47;6158674;23;1462;-86
2022/06/30 01:41:40;;;;;;;;;;;;;;;20.38;65.17;100109.19;6155177;23;1196;-86
2022/06/30 01:44:05;;;;;;;;;;;;;;;20.02;65.55;100116.47;6154709;23;1258;-86
2022/06/30 01:46:30;;;;;;;;;;;;;;;20.12;65.98;100123.50;6153510;23;1367;-86
2022/06/30 01:48:55;;;;;;;;;;;;;;;19.96;66.22;100119.88;6153975;23;1897;-86
2022/06/30 01:51:20;;;;;;;;;;;;;;;20.06;65.81;100116.59;6155191;23;1029;-86
2022/06/30 01:53:46;;;;;;;;;;;;;;;20.00;65.89;100112.44;6156027;23;1210;-86
2022/06/30 01:56:11;;;;;;;;;;;;;;;20.05;66.05;100116.94;6156622;23;802;-86
2022/06/30 01:58:36;;;;;;;;;;;;;;;19.84;66.31;100101.25;6154469;23;1012;-86
2022/06/30 02:01:01;;;;;;;;;;;;;;;19.79;66.70;100104.28;6154483;23;1179;-86
2022/06/30 02:03:26;;;;;;;;;;;;;;;19.76;66.79;100109.72;6154179;23;1157;-86
2022/06/30 02:05:51;;;;;;;;;;;;;;;20.02;65.77;100108.13;6154375;23;1239;-87
2022/06/30 02:08:16;;;;;;;;;;;;;;;20.16;65.36;100107.72;6154363;23;1000;-87
2022/06/30 02:10:42;;;;;;;;;;;;;;;19.91;65.59;100111.75;6154283;23;1938;-86
2022/06/30 02:13:07;;;;;;;;;;;;;;;19.64;66.25;100100.28;6155394;23;890;-85
2022/06/30 02:15:36;;;;;;;;;;;;;;;19.72;65.75;100097.72;6155426;23;1249;-85
2022/06/30 02:18:03;;;;;;;;;;;;;;;19.54;67.53;100099.97;6156057;23;849;-85
2022/06/30 02:20:28;;;;;;;;;;;;;;;19.86;66.69;100098.94;6154167;23;1188;-86
2022/06/30 02:22:55;;;;;;;;;;;;;;;19.39;66.92;100093.13;6154109;23;1300;-86
2022/06/30 02:25:20;;;;;;;;;;;;;;;19.56;66.98;100094.88;6153659;23;1274;-86
2022/06/30 02:27:45;;;;;;;;;;;;;;;19.36;66.58;100088.28;6155507;23;1004;-86
2022/06/30 02:30:11;;;;;;;;;;;;;;;19.49;66.59;100091.84;6153886;23;1922;-86
2022/06/30 02:32:36;;;;;;;;;;;;;;;19.48;66.35;100093.03;6154897;23;1224;-86
2022/06/30 02:35:02;;;;;;;;;;;;;;;19.39;67.78;100095.09;6153248;23;1343;-86
2022/06/30 02:37:27;;;;;;;;;;;;;;;19.29;67.56;100090.84;6155938;23;1024;-86
2022/06/30 02:39:52;;;;;;;;;;;;;;;19.18;67.03;100100.78;6155724;23;1161;-85
2022/06/30 02:42:18;;;;;;;;;;;;;;;19.16;66.57;100100.31;6156240;23;1149;-86
2022/06/30 02:44:43;;;;;;;;;;;;;;;19.23;66.59;100093.03;6155416;23;1361;-86
2022/06/30 02:47:08;;;;;;;;;;;;;;;19.28;66.65;100095.56;6155086;23;1032;-86
2022/06/30 02:49:33;;;;;;;;;;;;;;;18.93;68.68;100094.44;6157481;23;1929;-86
2022/06/30 02:51:58;;;;;;;;;;;;;;;19.22;67.58;100098.94;6155618;23;1370;-86
2022/06/30 02:54:24;;;;;;;;;;;;;;;19.12;67.99;100100.22;6157134;23;1266;-86
2022/06/30 02:56:49;;;;;;;;;;;;;;;18.89;69.06;100087.94;6155718;23;977;-86
2022/06/30 02:59:14;;;;;;;;;;;;;;;18.84;68.88;100083.44;6154525;23;1307;-86
2022/06/30 03:01:39;;;;;;;;;;;;;;;18.86;68.10;100091.41;6157617;23;917;-86
2022/06/30 03:04:05;;;;;;;;;;;;;;;19.04;69.06;100094.78;6155247;23;1228;-86
2022/06/30 03:06:30;;;;;;;;;;;;;;;19.09;68.46;100092.56;6155366;23;1286;-86
2022/06/30 03:08:56;;;;;;;;;;;;;;;19.10;67.70;100094.19;6155503;23;1932;-86
2022/06/30 03:11:22;;;;;;;;;;;;;;;18.92;69.07;100094.78;6157365;23;805;-86
2022/06/30 03:13:47;;;;;;;;;;;;;;;19.12;68.72;100085.53;6155443;23;1221;-86
2022/06/30 03:16:12;;;;;;;;;;;;;;;18.89;69.10;100090.72;6157213;23;941;-85
2022/06/30 03:18:38;;;;;;;;;;;;;;;18.73;69.51;100085.03;6156710;23;822;-86
2022/06/30 03:21:03;;;;;;;;;;;;;;;18.69;69.76;100089.69;6156743;23;996;-85
2022/06/30 03:23:28;;;;;;;;;;;;;;;19.06;68.54;100086.91;6154964;23;1211;-86
2022/06/30 03:25:53;;;;;;;;;;;;;;;19.02;69.97;100095.13;6155123;23;1153;-86
2022/06/30 03:28:19;;;;;;;;;;;;;;;19.17;68.39;100094.41;6156629;23;1000;-87
2022/06/30 03:30:47;;;;;;;;;;;;;;;19.17;68.79;100083.31;6156764;23;1929;-86
2022/06/30 03:33:12;;;;;;;;;;;;;;;19.20;68.27;100088.19;6155243;23;1181;-86
2022/06/30 03:35:37;;;;;;;;;;;;;;;19.10;68.72;100085.06;6154955;23;1348;-86
2022/06/30 03:38:04;;;;;;;;;;;;;;;19.19;68.98;100086.56;6156990;23;760;-87
2022/06/30 03:40:29;;;;;;;;;;;;;;;19.06;69.29;100086.91;6158237;23;793;-86
2022/06/30 03:42:54;;;;;;;;;;;;;;;18.97;70.51;100089.78;6157795;23;948;-86
2022/06/30 03:45:20;;;;;;;;;;;;;;;18.85;69.62;100084.25;6155453;23;1282;-86
2022/06/30 03:47:45;;;;;;;;;;;;;;;19.10;69.07;100083.09;6156926;23;1021;-86
2022/06/30 03:50:10;;;;;;;;;;;;;;;18.97;69.46;100083.47;6156436;23;1880;-86
2022/06/30 03:52:35;;;;;;;;;;;;;;;19.01;69.48;100089.91;6157082;23;809;-86
2022/06/30 03:55:00;;;;;;;;;;;;;;;18.99;69.96;100081.94;6156422;23;1195;-85
2022/06/30 03:57:25;;;;;;;;;;;;;;;19.18;69.10;100079.41;6157021;23;695;-87
2022/06/30 03:59:51;;;;;;;;;;;;;;;19.18;68.87;100081.34;6155427;23;1330;-86
2022/06/30 04:02:16;;;;;;;;;;;;;;;19.11;69.51;100079.16;6156295;23;771;-86
2022/06/30 04:04:41;;;;;;;;;;;;;;;19.14;68.91;100081.22;6156651;23;1298;-86
2022/06/30 04:07:06;;;;;;;;;;;;;;;18.82;71.22;100079.38;6155523;23;1036;-86
2022/06/30 04:09:31;;;;;;;;;;;;;;;18.92;70.67;100076.16;6155589;23;1900;-86
2022/06/30 04:11:56;;;;;;;;;;;;;;;19.07;69.13;100083.78;6155473;23;992;-85
2022/06/30 04:14:21;;;;;;;;;;;;;;;18.95;70.55;100069.94;6154852;23;1247;-86
2022/06/30 04:16:47;;;;;;;;;;;;;;;18.95;70.70;100081.03;6157313;23;988;-85
2022/06/30 04:19:12;;;;;;;;;;;;;;;18.93;71.24;100074.19;6155614;23;1354;-86
2022/06/30 04:21:37;;;;;;;;;;;;;;;18.86;71.26;100070.03;6157208;23;818;-86
2022/06/30 04:24:02;;;;;;;;;;;;;;;18.98;70.49;100072.00;6154774;23;1274;-86
2022/06/30 04:26:27;;;;;;;;;;;;;;;19.02;69.82;100063.81;6154957;23;1291;-87
2022/06/30 04:28:54;;;;;;;;;;;;;;;18.88;71.65;100069.72;6154549;23;1932;-86
2022/06/30 04:34:03;;;;;;;;;;;;;;;19.12;70.59;100064.16;6156477;23;1291;-86
2022/06/30 04:36:29;;;;;;;;;;;;;;;19.03;70.56;100080.09;6156230;23;814;-85
2022/06/30 04:38:54;;;;;;;;;;;;;;;18.95;72.00;100072.72;6156161;23;850;-86
2022/06/30 04:41:26;;;;;;;;;;;;;;;18.93;71.78;100076.97;6155062;23;1428;-86
2022/06/30 04:43:55;;;;;;;;;;;;;;;18.99;71.23;100070.84;6154567;23;1251;-85
2022/06/30 04:46:20;;;;;;;;;;;;;;;19.03;71.41;100077.31;6154924;23;1307;-87
2022/06/30 04:48:46;;;;;;;;;;;;;;;19.15;71.05;100068.97;6154846;23;1935;-86
2022/06/30 04:51:11;;;;;;;;;;;;;;;19.19;70.86;100075.47;6157408;23;929;-86
2022/06/30 04:53:36;;;;;;;;;;;;;;;19.04;72.04;100069.81;6164811;23;1204;-86
2022/06/30 04:56:02;;;;;;;;;;;;;;;19.12;71.42;100068.88;6154266;23;1298;-86
2022/06/30 04:58:27;;;;;;;;;;;;;;;19.32;72.04;100072.66;6154588;23;1188;-86
2022/06/30 05:00:52;;;;;;;;;;;;;;;19.27;70.52;100077.31;6153815;23;1180;-86
2022/06/30 05:03:17;;;;;;;;;;;;;;;19.19;71.20;100069.09;6154282;23;1248;-86
2022/06/30 05:05:42;;;;;;;;;;;;;;;19.31;71.81;100071.84;6154193;23;1268;-86
2022/06/30 05:08:08;;;;;;;;;;;;;;;19.35;72.00;100074.75;6154645;23;1188;-86
2022/06/30 05:10:33;;;;;;;;;;;;;;;19.26;71.76;100072.91;6154423;23;1930;-87
2022/06/30 05:12:58;;;;;;;;;;;;;;;19.44;72.31;100069.88;6156086;23;928;-86
2022/06/30 05:15:23;;;;;;;;;;;;;;;19.67;71.50;100067.41;6154202;23;1270;-85
2022/06/30 05:17:48;;;;;;;;;;;;;;;19.77;71.30;100070.50;6156124;23;959;-86
2022/06/30 05:20:13;;;;;;;;;;;;;;;19.97;71.08;100065.91;6155264;23;981;-86
2022/06/30 05:22:38;;;;;;;;;;;;;;;20.07;70.04;100065.41;6156102;23;980;-86
2022/06/30 05:27:48;;;;;;;;;;;;;;;20.20;69.64;100061.41;6156149;23;616;-86
2022/06/30 05:30:14;;;;;;;;;;;;;;;20.24;70.03;100056.75;6156180;23;2201;-86
2022/06/30 05:32:39;;;;;;;;;;;;;;;20.32;69.73;100075.25;6155457;23;797;-85
2022/06/30 05:35:05;;;;;;;;;;;;;;;20.38;69.65;100064.69;6153734;23;1307;-86
2022/06/30 05:37:30;;;;;;;;;;;;;;;20.38;70.06;100067.47;6154600;23;1279;-87
2022/06/30 05:39:55;;;;;;;;;;;;;;;20.44;69.58;100066.03;6156155;23;984;-86
2022/06/30 05:42:20;;;;;;;;;;;;;;;20.52;69.90;100078.16;6155873;23;1035;-86
2022/06/30 05:44:46;;;;;;;;;;;;;;;20.61;69.36;100062.09;6155307;23;1262;-86
2022/06/30 05:47:11;;;;;;;;;;;;;;;20.62;69.54;100074.84;6155859;23;818;-86
2022/06/30 05:49:37;;;;;;;;;;;;;;;20.52;69.80;100070.63;6154309;23;1888;-87
2022/06/30 05:52:02;;;;;;;;;;;;;;;20.57;69.86;100072.34;6156731;23;904;-87
2022/06/30 05:54:27;;;;;;;;;;;;;;;20.51;69.86;100074.56;6154485;23;1224;-87
2022/06/30 05:56:52;;;;;;;;;;;;;;;20.52;69.87;100075.38;6154681;23;977;-86
2022/06/30 05:59:18;;;;;;;;;;;;;;;20.53;70.14;100072.25;6153913;23;1286;-86
2022/06/30 06:01:43;;;;;;;;;;;;;;;20.50;70.25;100069.38;6155287;23;846;-85
2022/06/30 06:04:08;;;;;;;;;;;;;;;20.51;70.12;100063.44;6153591;23;1224;-86
2022/06/30 06:06:33;;;;;;;;;;;;;;;20.53;70.91;100063.09;6153925;23;1311;-86
2022/06/30 06:08:58;;;;;;;;;;;;;;;20.57;70.47;100067.59;6154232;23;1927;-86
2022/06/30 06:11:23;;;;;;;;;;;;;;;20.60;70.51;100066.03;6155757;23;980;-86
2022/06/30 06:13:49;;;;;;;;;;;;;;;20.69;70.72;100058.34;6154298;23;1319;-86
2022/06/30 06:16:14;;;;;;;;;;;;;;;20.74;70.25;100058.09;6154382;23;1276;-87
2022/06/30 06:18:39;;;;;;;;;;;;;;;20.76;70.52;100064.06;6154857;23;1053;-86
2022/06/30 06:21:04;;;;;;;;;;;;;;;20.70;69.64;100060.75;6155174;23;786;-86
2022/06/30 06:23:29;;;;;;;;;;;;;;;20.64;69.80;100065.00;6154073;23;1188;-86
2022/06/30 06:25:54;;;;;;;;;;;;;;;20.58;69.98;100069.22;6153660;23;1437;-86
2022/06/30 06:31:04;;;;;;;;;;;;;;;20.49;71.14;100059.44;6155617;23;593;-86
2022/06/30 06:33:29;;;;;;;;;;;;;;;20.57;71.27;100056.47;6154912;23;1205;-86
2022/06/30 06:35:55;;;;;;;;;;;;;;;20.64;71.00;100042.75;6155385;23;763;-87
2022/06/30 06:38:20;;;;;;;;;;;;;;;20.71;71.33;100044.88;6154008;23;1213;-86
2022/06/30 06:40:45;;;;;;;;;;;;;;;20.72;70.69;100035.38;6155244;23;850;-87
2022/06/30 06:43:10;;;;;;;;;;;;;;;20.73;71.22;100029.47;6152827;23;959;-86
2022/06/30 06:45:36;;;;;;;;;;;;;;;20.82;71.18;100023.72;6153437;23;1275;-86
2022/06/30 06:48:01;;;;;;;;;;;;;;;20.87;71.19;100031.78;6155265;23;1005;-85
2022/06/30 06:50:26;;;;;;;;;;;;;;;20.88;71.15;100036.16;6154682;23;1926;-86
2022/06/30 06:52:51;;;;;;;;;;;;;;;20.92;71.25;100027.91;6155752;23;798;-87
2022/06/30 06:55:17;;;;;;;;;;;;;;;20.93;71.07;100037.84;6153329;23;1312;-87
2022/06/30 06:57:43;;;;;;;;;;;;;;;20.93;71.07;100035.88;6153173;23;1183;-87
2022/06/30 07:00:09;;;;;;;;;;;;;;;20.95;71.37;100033.56;6155539;23;897;-87
2022/06/30 07:02:35;;;;;;;;;;;;;;;20.99;71.39;100036.44;6154999;23;827;-87
2022/06/30 07:05:00;;;;;;;;;;;;;;;21.02;71.83;100038.47;6153314;23;1262;-87
2022/06/30 07:07:25;;;;;;;;;;;;;;;21.07;71.35;100035.44;6154316;23;1187;-87
2022/06/30 07:09:51;;;;;;;;;;;;;;;21.12;71.11;100027.59;6155521;23;1923;-86
2022/06/30 07:12:16;;;;;;;;;;;;;;;21.14;72.28;100030.84;6155382;23;980;-87
2022/06/30 07:14:41;;;;;;;;;;;;;;;21.17;72.00;100022.94;6153889;23;1259;-87
2022/06/30 07:17:07;;;;;;;;;;;;;;;21.19;72.10;100021.41;6155916;23;786;-87
2022/06/30 07:19:32;;;;;;;;;;;;;;;21.27;71.70;100034.31;6153500;23;1192;-87
2022/06/30 07:21:58;;;;;;;;;;;;;;;21.32;72.81;100030.47;6153860;23;1191;-87
2022/06/30 07:24:23;;;;;;;;;;;;;;;21.35;72.14;100035.31;6155540;23;1262;-87
2022/06/30 07:26:48;;;;;;;;;;;;;;;21.35;71.41;100038.88;6157787;23;901;-87
2022/06/30 07:29:13;;;;;;;;;;;;;;;21.42;72.55;100039.06;6155961;23;1923;-87
2022/06/30 07:31:38;;;;;;;;;;;;;;;21.48;72.64;100039.56;6156179;23;1260;-88
2022/06/30 07:34:03;;;;;;;;;;;;;;;21.47;72.54;100030.41;6157378;23;1262;-86
2022/06/30 07:36:29;;;;;;;;;;;;;;;21.51;72.03;100036.06;6156092;23;1177;-87
2022/06/30 07:38:54;;;;;;;;;;;;;;;21.51;71.82;100038.84;6155835;23;1287;-87
2022/06/30 07:41:19;;;;;;;;;;;;;;;21.56;71.60;100027.41;6155031;23;1024;-88
2022/06/30 07:43:45;;;;;;;;;;;;;;;21.62;72.43;100033.47;6154729;23;1292;-88
2022/06/30 07:46:10;;;;;;;;;;;;;;;21.62;71.87;100027.91;6155809;23;767;-88
2022/06/30 07:48:35;;;;;;;;;;;;;;;21.65;71.77;100022.41;6156060;23;1313;-87
2022/06/30 07:51:00;;;;;;;;;;;;;;;21.70;70.96;100024.91;6157139;23;1895;-87
2022/06/30 07:53:25;;;;;;;;;;;;;;;21.72;71.17;100021.75;6155669;23;838;-89
2022/06/30 07:55:52;;;;;;;;;;;;;;;21.74;72.05;100020.22;6155719;23;1282;-89
2022/06/30 07:58:17;;;;;;;;;;;;;;;21.79;72.14;100013.53;6157396;23;783;-87
2022/06/30 08:00:42;;;;;;;;;;;;;;;21.84;72.83;100013.25;6157290;23;977;-88
2022/06/30 08:03:07;;;;;;;;;;;;;;;21.86;72.14;100011.69;6157483;23;771;-89
2022/06/30 08:05:32;;;;;;;;;;;;;;;21.95;72.02;100008.69;6156252;23;1290;-88
2022/06/30 08:07:58;;;;;;;;;;;;;;;21.97;72.38;100008.31;6156739;23;1295;-88
2022/06/30 08:10:23;;;;;;;;;;;;;;;22.00;72.46;100008.44;6161768;23;1932;-87
2022/06/30 08:12:48;;;;;;;;;;;;;;;22.05;72.30;100012.88;6159746;23;1303;-89
2022/06/30 08:15:13;;;;;;;;;;;;;;;22.09;71.55;100016.56;6155924;23;1184;-89
2022/06/30 08:17:38;;;;;;;;;;;;;;;22.16;71.08;100009.13;6155888;23;1276;-88
2022/06/30 08:20:04;;;;;;;;;;;;;;;22.19;72.07;100010.38;6155617;23;1256;-89
2022/06/30 08:22:29;;;;;;;;;;;;;;;22.21;71.59;100017.19;6157085;23;1277;-88
2022/06/30 08:24:55;;;;;;;;;;;;;;;22.23;71.54;100014.03;6155616;23;1267;-88
2022/06/30 08:27:20;;;;;;;;;;;;;;;22.31;70.64;100012.97;6157289;23;802;-89
2022/06/30 08:29:45;;;;;;;;;;;;;;;22.35;71.92;100016.66;6155610;23;1889;-89
2022/06/30 08:32:10;;;;;;;;;;;;;;;22.43;70.69;100017.56;6155853;23;882;-88
2022/06/30 08:34:35;;;;;;;;;;;;;;;22.47;70.68;100008.06;6155639;23;1257;-88
2022/06/30 08:37:00;;;;;;;;;;;;;;;22.47;71.57;99999.72;6155067;23;969;-88
2022/06/30 08:42:11;;;;;;;;;;;;;;;22.61;71.22;99997.19;6157056;23;597;-88
2022/06/30 08:44:37;;;;;;;;;;;;;;;22.66;71.43;99993.25;6155565;23;1314;-89
2022/06/30 08:47:03;;;;;;;;;;;;;;;22.70;71.49;99996.13;6155122;23;1188;-88
2022/06/30 08:49:29;;;;;;;;;;;;;;;22.74;70.41;100005.31;6156415;23;1928;-88
2022/06/30 08:52:00;;;;;;;;;;;;;;;22.81;70.60;100003.47;6155226;23;1559;-88
2022/06/30 08:54:26;;;;;;;;;;;;;;;22.86;70.09;100003.19;6154784;23;1299;-86
2022/06/30 08:56:52;;;;;;;;;;;;;;;22.87;70.13;100007.59;6156433;23;1224;-88
2022/06/30 08:59:19;;;;;;;;;;;;;;;22.87;70.20;99993.63;6155555;23;1215;-88
2022/06/30 09:01:44;;;;;;;;;;;;;;;22.88;70.58;100005.59;6155024;23;1473;-87
2022/06/30 09:04:10;;;;;;;;;;;;;;;22.90;70.98;99997.63;6155187;23;1414;-89
2022/06/30 09:06:35;;;;;;;;;;;;;;;22.92;70.57;100001.66;6155417;23;1279;-88
2022/06/30 09:09:00;;;;;;;;;;;;;;;22.96;71.09;99999.75;6154820;23;1935;-88
2022/06/30 09:11:44;;;;;;;;;;;;;;;22.95;69.48;99995.34;6155068;23;1259;-88
2022/06/30 09:14:09;;;;;;;;;;;;;;;22.98;69.75;100002.16;6154866;23;1292;-88
2022/06/30 09:16:34;;;;;;;;;;;;;;;22.98;70.48;99989.00;6155228;23;1016;-88
2022/06/30 09:18:59;;;;;;;;;;;;;;;23.12;68.66;99990.41;6154773;23;950;-88
2022/06/30 09:21:26;;;;;;;;;;;;;;;23.20;68.16;99994.91;6154999;23;1144;-89
2022/06/30 09:23:51;;;;;;;;;;;;;;;23.24;68.66;99990.16;6155795;23;1258;-89
2022/06/30 09:26:20;;;;;;;;;;;;;;;23.26;68.90;99985.81;6154435;23;1080;-88
2022/06/30 09:28:54;;;;;;;;;;;;;;;23.30;69.34;99988.66;6155171;23;1888;-88
2022/06/30 09:31:31;;;;;;;;;;;;;;;23.30;68.03;99985.88;6156257;23;815;-88
2022/06/30 09:33:56;;;;;;;;;;;;;;;23.34;66.95;99978.31;6154377;23;1212;-88
2022/06/30 09:36:22;;;;;;;;;;;;;;;23.38;66.90;99985.59;6156319;23;881;-87
2022/06/30 09:39:02;;;;;;;;;;;;;;;23.44;66.13;99982.44;6155186;23;1237;-89
2022/06/30 09:41:29;;;;;;;;;;;;;;;23.46;66.23;99975.31;6155135;23;1315;-89
2022/06/30 09:43:54;;;;;;;;;;;;;;;23.52;65.44;99976.59;6155090;23;1274;-88
2022/06/30 09:46:20;;;;;;;;;;;;;;;23.58;66.24;99980.66;6154844;23;1185;-88
2022/06/30 09:48:45;;;;;;;;;;;;;;;23.62;66.86;99972.34;6156335;23;952;-88
2022/06/30 09:51:10;;;;;;;;;;;;;;;23.69;66.49;99976.00;6155327;23;1976;-89
2022/06/30 09:53:35;;;;;;;;;;;;;;;23.74;65.62;99975.66;6154427;23;1278;-88
2022/06/30 09:56:14;;;;;;;;;;;;;;;23.84;65.08;99967.78;6156041;23;1008;-88
2022/06/30 09:58:42;;;;;;;;;;;;;;;23.87;64.88;99962.25;6155010;23;1275;-88
2022/06/30 10:01:07;;;;;;;;;;;;;;;23.91;64.97;99973.44;6154602;23;1156;-88
2022/06/30 10:03:33;;;;;;;;;;;;;;;23.97;64.39;99964.34;6155752;23;1209;-88
2022/06/30 10:06:07;;;;;;;;;;;;;;;23.99;64.30;99961.16;6154541;23;1250;-89
2022/06/30 10:08:32;;;;;;;;;;;;;;;24.11;64.25;99960.88;6154697;23;1256;-87
2022/06/30 10:10:58;;;;;;;;;;;;;;;24.11;64.79;99956.09;6154704;23;1932;-88
2022/06/30 10:13:24;;;;;;;;;;;;;;;24.12;64.27;99954.91;6156267;23;976;-87
2022/06/30 10:15:56;;;;;;;;;;;;;;;24.18;63.93;99954.53;6154717;23;1298;-87
2022/06/30 10:18:25;;;;;;;;;;;;;;;24.29;62.71;99945.09;6156644;23;790;-86
2022/06/30 10:20:50;;;;;;;;;;;;;;;24.38;62.41;99953.16;6152719;23;1164;-86
2022/06/30 10:23:19;;;;;;;;;;;;;;;24.46;61.78;99958.44;6154127;23;782;-88
2022/06/30 10:25:44;;;;;;;;;;;;;;;24.49;62.02;99949.28;6153833;23;1377;-88
2022/06/30 10:28:10;;;;;;;;;;;;;;;24.41;61.03;99946.81;6156400;23;1173;-89
2022/06/30 10:30:49;;;;;;;;;;;;;;;24.47;62.80;99939.66;6155439;23;1928;-87
2022/06/30 10:33:19;;;;;;;;;;;;;;;24.48;60.24;99936.47;6155714;23;973;-88
2022/06/30 10:35:48;;;;;;;;;;;;;;;24.50;61.03;99942.47;6155336;23;1239;-89
2022/06/30 10:38:20;;;;;;;;;;;;;;;24.59;61.75;99941.34;6153664;23;1302;-89
2022/06/30 10:41:00;;;;;;;;;;;;;;;24.61;62.57;99939.75;6155352;23;861;-89
2022/06/30 10:43:25;;;;;;;;;;;;;;;24.63;62.77;99936.56;6154137;23;1267;-87
2022/06/30 10:45:58;;;;;;;;;;;;;;;24.72;62.13;99934.25;6152351;23;1312;-89
2022/06/30 10:48:24;;;;;;;;;;;;;;;24.83;59.63;99932.31;6153287;23;1215;-89
2022/06/30 10:50:51;;;;;;;;;;;;;;;24.93;58.40;99930.78;6153177;23;1862;-90
2022/06/30 10:53:21;;;;;;;;;;;;;;;25.01;57.61;99930.44;6155180;23;846;-89
2022/06/30 10:55:49;;;;;;;;;;;;;;;25.06;58.77;99930.09;6155378;23;1204;-88
2022/06/30 10:58:15;;;;;;;;;;;;;;;25.11;60.81;99928.91;6155080;23;1209;-88
2022/06/30 11:00:48;;;;;;;;;;;;;;;25.14;61.46;99931.72;6156725;23;1239;-88
2022/06/30 11:03:34;;;;;;;;;;;;;;;25.18;55.61;99912.13;6159213;23;826;-88
2022/06/30 11:06:10;;;;;;;;;;;;;;;25.19;57.90;99908.94;6156715;23;1298;-89
2022/06/30 11:11:22;;;;;;;;;;;;;;;25.44;58.35;99908.22;6159510;23;617;-89
2022/06/30 11:13:47;;;;;;;;;;;;;;;25.47;58.18;99894.25;6156313;23;1188;-89
2022/06/30 11:16:17;;;;;;;;;;;;;;;25.49;58.64;99900.25;6156572;23;1168;-89
2022/06/30 11:18:42;;;;;;;;;;;;;;;25.48;57.11;99897.84;6156675;23;1300;-88
2022/06/30 11:21:08;;;;;;;;;;;;;;;25.49;58.95;99891.03;6158072;23;1016;-89
2022/06/30 11:23:41;;;;;;;;;;;;;;;25.52;57.82;99901.47;6157279;23;1361;-89
2022/06/30 11:28:54;;;;;;;;;;;;;;;25.51;57.99;99881.06;6158545;23;1920;-88
2022/06/30 11:31:22;;;;;;;;;;;;;;;25.62;54.73;99878.28;6159806;23;1031;-88
2022/06/30 11:33:56;;;;;;;;;;;;;;;25.63;53.58;99872.28;6158690;23;1210;-88
2022/06/30 11:36:21;;;;;;;;;;;;;;;25.63;55.04;99875.09;6169512;23;818;-88
2022/06/30 11:38:54;;;;;;;;;;;;;;;25.63;54.17;99869.47;6157232;23;1234;-88
2022/06/30 11:44:06;;;;;;;;;;;;;;;25.81;51.99;99863.91;6156526;23;1180;-89
2022/06/30 11:46:32;;;;;;;;;;;;;;;25.83;53.21;99869.13;6156029;23;1151;-89
2022/06/30 11:48:58;;;;;;;;;;;;;;;25.80;54.81;99873.50;6156940;23;1901;-88
2022/06/30 11:51:23;;;;;;;;;;;;;;;25.85;53.19;99875.16;6158287;23;1343;-89
2022/06/30 11:53:48;;;;;;;;;;;;;;;25.94;52.32;99869.94;6156699;23;1412;-89
2022/06/30 11:56:14;;;;;;;;;;;;;;;25.94;51.68;99873.56;6157974;23;1023;-88
2022/06/30 11:58:39;;;;;;;;;;;;;;;26.06;49.59;99849.09;6154004;23;1307;-88
2022/06/30 12:01:11;;;;;;;;;;;;;;;26.06;51.58;99857.50;6154211;23;1295;-87
2022/06/30 12:03:37;;;;;;;;;;;;;;;26.12;51.22;99864.31;6156249;23;1200;-87
2022/06/30 12:06:02;;;;;;;;;;;;;;;26.16;47.61;99863.13;6157492;23;1351;-87
2022/06/30 12:08:27;;;;;;;;;;;;;;;26.16;48.17;99874.34;6157405;23;961;-87
2022/06/30 12:10:56;;;;;;;;;;;;;;;26.24;48.68;99869.53;6156284;23;1927;-87
2022/06/30 12:13:22;;;;;;;;;;;;;;;26.26;48.96;99861.56;6157213;23;1184;-87
2022/06/30 12:15:47;;;;;;;;;;;;;;;26.34;48.74;99861.16;6156744;23;1278;-88
2022/06/30 12:18:12;;;;;;;;;;;;;;;26.44;48.49;99859.53;6160838;23;1172;-87
2022/06/30 12:20:38;;;;;;;;;;;;;;;26.29;49.20;99860.72;6160644;23;1232;-87
2022/06/30 12:23:03;;;;;;;;;;;;;;;26.21;48.88;99857.09;6164298;23;766;-87
2022/06/30 12:25:29;;;;;;;;;;;;;;;26.44;46.77;99859.53;6162770;23;1204;-86
2022/06/30 12:27:56;;;;;;;;;;;;;;;26.61;45.32;99853.09;6157238;23;1145;-86
2022/06/30 12:30:31;;;;;;;;;;;;;;;26.70;50.05;99850.66;6159905;23;1933;-86
2022/06/30 12:32:58;;;;;;;;;;;;;;;26.74;49.42;99845.81;6162300;23;1322;-86
2022/06/30 12:35:24;;;;;;;;;;;;;;;26.69;50.76;99846.25;6163487;23;1206;-85
2022/06/30 12:37:49;;;;;;;;;;;;;;;26.61;50.56;99853.09;6161674;23;949;-86
2022/06/30 12:40:16;;;;;;;;;;;;;;;26.50;49.96;99849.50;6161378;23;1250;-86
2022/06/30 12:42:51;;;;;;;;;;;;;;;26.40;51.18;99858.72;6164292;23;941;-84
2022/06/30 12:45:35;;;;;;;;;;;;;;;26.29;51.92;99871.97;6160808;23;1251;-86
2022/06/30 12:48:01;;;;;;;;;;;;;;;25.93;50.46;99888.78;6158801;23;885;-87
2022/06/30 12:50:27;;;;;;;;;;;;;;;25.62;51.81;99883.91;6159866;23;1918;-87
2022/06/30 12:52:52;;;;;;;;;;;;;;;25.50;52.70;99879.44;6159477;23;1393;-87
2022/06/30 12:55:17;;;;;;;;;;;;;;;25.38;52.91;99865.78;6154831;23;1326;-87
2022/06/30 12:57:45;;;;;;;;;;;;;;;25.38;52.99;99867.78;6156471;23;1266;-86
2022/06/30 13:00:12;;;;;;;;;;;;;;;25.50;52.07;99864.63;6153132;23;1267;-87
2022/06/30 13:02:39;;;;;;;;;;;;;;;25.37;52.69;99868.97;6154250;23;1353;-87
2022/06/30 13:05:04;;;;;;;;;;;;;;;25.47;53.04;99869.03;6155708;23;1303;-87
2022/06/30 13:07:30;;;;;;;;;;;;;;;25.52;53.38;99867.84;6155479;23;1843;-88
2022/06/30 13:09:59;;;;;;;;;;;;;;;25.86;52.14;99874.72;6158275;23;1889;-87
2022/06/30 13:12:25;;;;;;;;;;;;;;;25.85;51.48;99894.78;6131256;23;1498;-88